Allen, Louisiana
Current Conditions -  °F | °C
As of 6:35 PM on Sunday 21 Dec 2014 (Local Time) from KIER Reporting Station
Clear Clear  
Wind Chill: 53°   Ceiling: Unl
Heat Index: 53°   Visibility: 10mi
Dew Point: 47°   Wind: 6mph
Humidity: 78%   Direction: 140°SE
Pressure: 29.94"   Gusts: NA
Location:  31.8112°N, 93.3051°W
Report Text: KIER 220035Z AUTO 14005KT 10SM CLR 12/08 A2994 RMK AO2 T01190082
Loading
Personal Weather Stations






























Interactive Weather Map New forecast layout! Learn more

10-Day Weather Forecast

Advertisements
Track Severe Weather on mobile